Main page
METAR-TAF:

METAR-TAF

Airports :

Damascus International Airport

Damascus, Syria

latitude: 33-25N, longitude: 036-31E, elevation: 608 m

Current weather observation

The report was made 52 minutes ago, at 05:00 UTC
Wind 8 kt from the Southwest
Temperature 24°C
Humidity 69%
Pressure 1012 hPa
Visibility 10 km or more
no clouds below 1500 m and no cumulonimbus

METAR: OSDI 250500Z 22008KT CAVOK 24/18 Q1012

Time: 08:52 (05:52 UTC)

Forecast

The report was made 7 hours and 52 minutes ago, at 22:00 UTC
Forecast valid from 25 at 00 UTC to 26 at 06 UTC
Wind 15 kt from the Southwest
Visibility 10 km or more
no clouds below 1500 m and no cumulonimbus
Temporary
from 25 at 09 UTC to 25 at 21 UTC
Wind 15 kt from the West/Southwest with gusts up to 25 kt
Visibility: 8000 m
Few clouds at a height of 3000 ft

TAF: OSDI 242200Z 2500/2606 22015KT CAVOK TEMPO 2509/2521 25015G25KT 8000 FEW030

Weather observations and forecasts of more than 4000 airports (METAR and TAF reports).

The available stations are represented by yellow and red dots on the map.

Hover mouse over dot to see the name of the station.

Then click to see weather observations and forecasts.

To change the map : click on the green buttons with a black cross to zoom in, on the green button with a dash to zoom out, or on the green arrows for adjacent maps.


METAR-TAF: